sensor_id;sensor_type;location;lat;lon;timestamp;pressure;altitude;pressure_sealevel;temperature;humidity
56671;BME280;42545;50.054;8.306;2023-05-10T00:02:17;99208.09;;;12.16;100.00
56671;BME280;42545;50.054;8.306;2023-05-10T00:04:43;99207.19;;;12.14;100.00
56671;BME280;42545;50.054;8.306;2023-05-10T00:07:10;99211.59;;;12.15;100.00
56671;BME280;42545;50.054;8.306;2023-05-10T00:09:36;99208.97;;;12.13;100.00
56671;BME280;42545;50.054;8.306;2023-05-10T00:12:03;99213.38;;;12.11;100.00
56671;BME280;42545;50.054;8.306;2023-05-10T00:14:31;99213.38;;;12.09;100.00
56671;BME280;42545;50.054;8.306;2023-05-10T00:16:57;99213.38;;;12.11;100.00
56671;BME280;42545;50.054;8.306;2023-05-10T00:19:24;99213.38;;;12.11;100.00
56671;BME280;42545;50.054;8.306;2023-05-10T00:21:50;99217.81;;;12.10;100.00
56671;BME280;42545;50.054;8.306;2023-05-10T00:24:17;99217.81;;;12.10;100.00
56671;BME280;42545;50.054;8.306;2023-05-10T00:26:43;99215.16;;;12.09;100.00
56671;BME280;42545;50.054;8.306;2023-05-10T00:29:10;99219.56;;;12.07;100.00
56671;BME280;42545;50.054;8.306;2023-05-10T00:31:38;99223.09;;;12.04;100.00
56671;BME280;42545;50.054;8.306;2023-05-10T00:34:04;99220.47;;;12.01;100.00
56671;BME280;42545;50.054;8.306;2023-05-10T00:36:31;99224.88;;;11.98;100.00
56671;BME280;42545;50.054;8.306;2023-05-10T00:38:57;99227.53;;;11.98;100.00
56671;BME280;42545;50.054;8.306;2023-05-10T00:41:24;99225.75;;;11.98;100.00
56671;BME280;42545;50.054;8.306;2023-05-10T00:43:51;99224.00;;;11.99;100.00
56671;BME280;42545;50.054;8.306;2023-05-10T00:46:17;99230.19;;;11.99;100.00
56671;BME280;42545;50.054;8.306;2023-05-10T00:48:45;99229.28;;;11.97;100.00
56671;BME280;42545;50.054;8.306;2023-05-10T00:51:13;99232.81;;;11.96;100.00
56671;BME280;42545;50.054;8.306;2023-05-10T00:53:40;99227.53;;;11.95;100.00
56671;BME280;42545;50.054;8.306;2023-05-10T00:56:07;99232.81;;;11.95;100.00
56671;BME280;42545;50.054;8.306;2023-05-10T00:58:34;99225.75;;;11.93;100.00
56671;BME280;42545;50.054;8.306;2023-05-10T01:01:01;99225.75;;;11.93;100.00
56671;BME280;42545;50.054;8.306;2023-05-10T01:03:27;99229.31;;;11.96;100.00
56671;BME280;42545;50.054;8.306;2023-05-10T01:05:56;99230.19;;;11.95;100.00
56671;BME280;42545;50.054;8.306;2023-05-10T01:08:23;99230.19;;;11.95;100.00
56671;BME280;42545;50.054;8.306;2023-05-10T01:10:50;99227.53;;;11.95;100.00
56671;BME280;42545;50.054;8.306;2023-05-10T01:13:26;99228.44;;;11.92;100.00
56671;BME280;42545;50.054;8.306;2023-05-10T01:15:55;99230.16;;;11.88;100.00
56671;BME280;42545;50.054;8.306;2023-05-10T01:18:23;99223.09;;;11.87;100.00
56671;BME280;42545;50.054;8.306;2023-05-10T01:21:09;99227.53;;;11.84;100.00
56671;BME280;42545;50.054;8.306;2023-05-10T01:23:50;99236.34;;;11.83;100.00
56671;BME280;42545;50.054;8.306;2023-05-10T01:26:39;99231.06;;;11.80;100.00
56671;BME280;42545;50.054;8.306;2023-05-10T01:29:18;99232.84;;;11.78;100.00
56671;BME280;42545;50.054;8.306;2023-05-10T01:32:17;99239.00;;;11.78;100.00
56671;BME280;42545;50.054;8.306;2023-05-10T01:35:00;99238.97;;;11.77;100.00
56671;BME280;42545;50.054;8.306;2023-05-10T01:37:33;99238.97;;;11.75;100.00
56671;BME280;42545;50.054;8.306;2023-05-10T01:40:09;99240.75;;;11.76;100.00
56671;BME280;42545;50.054;8.306;2023-05-10T01:42:43;99244.28;;;11.77;100.00
56671;BME280;42545;50.054;8.306;2023-05-10T01:45:18;99246.91;;;11.77;100.00
56671;BME280;42545;50.054;8.306;2023-05-10T01:47:51;99237.25;;;11.74;100.00
56671;BME280;42545;50.054;8.306;2023-05-10T01:50:24;99231.94;;;11.71;100.00
56671;BME280;42545;50.054;8.306;2023-05-10T01:52:55;99243.38;;;11.70;100.00
56671;BME280;42545;50.054;8.306;2023-05-10T01:55:26;99242.50;;;11.69;100.00
56671;BME280;42545;50.054;8.306;2023-05-10T01:57:58;99245.16;;;11.68;100.00
56671;BME280;42545;50.054;8.306;2023-05-10T02:00:27;99242.50;;;11.68;100.00
56671;BME280;42545;50.054;8.306;2023-05-10T02:02:57;99246.03;;;11.70;100.00
56671;BME280;42545;50.054;8.306;2023-05-10T02:05:24;99247.81;;;11.71;100.00
56671;BME280;42545;50.054;8.306;2023-05-10T02:07:51;99259.25;;;11.70;100.00
56671;BME280;42545;50.054;8.306;2023-05-10T02:10:19;99259.25;;;11.71;100.00
56671;BME280;42545;50.054;8.306;2023-05-10T02:12:48;99263.66;;;11.72;100.00
56671;BME280;42545;50.054;8.306;2023-05-10T02:15:18;99267.19;;;11.73;100.00
56671;BME280;42545;50.054;8.306;2023-05-10T02:17:46;99274.25;;;11.74;100.00
56671;BME280;42545;50.054;8.306;2023-05-10T02:20:16;99274.25;;;11.72;100.00
56671;BME280;42545;50.054;8.306;2023-05-10T02:22:44;99283.91;;;11.73;100.00
56671;BME280;42545;50.054;8.306;2023-05-10T02:25:13;99274.25;;;11.72;100.00
56671;BME280;42545;50.054;8.306;2023-05-10T02:27:41;99284.81;;;11.71;100.00
56671;BME280;42545;50.054;8.306;2023-05-10T02:30:10;99285.66;;;11.70;100.00
56671;BME280;42545;50.054;8.306;2023-05-10T02:32:37;99284.81;;;11.71;100.00
56671;BME280;42545;50.054;8.306;2023-05-10T02:35:05;99282.16;;;11.71;100.00
56671;BME280;42545;50.054;8.306;2023-05-10T02:37:35;99281.28;;;11.67;100.00
56671;BME280;42545;50.054;8.306;2023-05-10T02:40:04;99280.41;;;11.65;100.00
56671;BME280;42545;50.054;8.306;2023-05-10T02:42:33;99276.00;;;11.66;100.00
56671;BME280;42545;50.054;8.306;2023-05-10T02:45:05;99283.03;;;11.70;100.00
56671;BME280;42545;50.054;8.306;2023-05-10T02:47:33;99283.94;;;11.69;100.00
56671;BME280;42545;50.054;8.306;2023-05-10T02:50:00;99279.53;;;11.66;100.00
56671;BME280;42545;50.054;8.306;2023-05-10T02:52:30;99280.41;;;11.65;100.00
56671;BME280;42545;50.054;8.306;2023-05-10T02:55:05;99284.81;;;11.66;100.00
56671;BME280;42545;50.054;8.306;2023-05-10T02:57:33;99291.84;;;11.67;100.00
56671;BME280;42545;50.054;8.306;2023-05-10T03:00:01;99290.09;;;11.68;100.00
56671;BME280;42545;50.054;8.306;2023-05-10T03:02:28;99283.91;;;11.64;100.00
56671;BME280;42545;50.054;8.306;2023-05-10T03:04:55;99283.94;;;11.63;100.00
56671;BME280;42545;50.054;8.306;2023-05-10T03:07:22;99278.66;;;11.63;100.00
56671;BME280;42545;50.054;8.306;2023-05-10T03:09:49;99280.41;;;11.65;100.00
56671;BME280;42545;50.054;8.306;2023-05-10T03:12:24;99290.09;;;11.68;100.00
56671;BME280;42545;50.054;8.306;2023-05-10T03:14:57;99291.88;;;11.72;100.00
56671;BME280;42545;50.054;8.306;2023-05-10T03:17:31;99300.66;;;11.74;100.00
56671;BME280;42545;50.054;8.306;2023-05-10T03:20:04;99297.13;;;11.77;100.00
56671;BME280;42545;50.054;8.306;2023-05-10T03:22:37;99290.06;;;11.77;100.00
56671;BME280;42545;50.054;8.306;2023-05-10T03:25:06;99290.97;;;11.74;100.00
56671;BME280;42545;50.054;8.306;2023-05-10T03:27:35;99292.75;;;11.72;100.00
56671;BME280;42545;50.054;8.306;2023-05-10T03:30:03;99288.31;;;11.70;100.00
56671;BME280;42545;50.054;8.306;2023-05-10T03:32:31;99297.13;;;11.66;100.00
56671;BME280;42545;50.054;8.306;2023-05-10T03:34:59;99292.75;;;11.65;100.00
56671;BME280;42545;50.054;8.306;2023-05-10T03:37:26;99298.03;;;11.66;100.00
56671;BME280;42545;50.054;8.306;2023-05-10T03:39:53;99302.41;;;11.66;100.00
56671;BME280;42545;50.054;8.306;2023-05-10T03:42:19;99298.91;;;11.67;100.00
56671;BME280;42545;50.054;8.306;2023-05-10T03:44:47;99315.63;;;11.66;100.00
56671;BME280;42545;50.054;8.306;2023-05-10T03:47:15;99306.81;;;11.64;100.00
56671;BME280;42545;50.054;8.306;2023-05-10T03:49:41;99313.88;;;11.65;100.00
56671;BME280;42545;50.054;8.306;2023-05-10T03:52:08;99312.97;;;11.64;100.00
56671;BME280;42545;50.054;8.306;2023-05-10T03:54:34;99316.50;;;11.62;100.00
56671;BME280;42545;50.054;8.306;2023-05-10T03:57:01;99311.22;;;11.59;100.00
56671;BME280;42545;50.054;8.306;2023-05-10T03:59:28;99302.41;;;11.58;100.00
56671;BME280;42545;50.054;8.306;2023-05-10T04:01:56;99305.94;;;11.57;100.00
56671;BME280;42545;50.054;8.306;2023-05-10T04:04:23;99307.69;;;11.57;100.00
56671;BME280;42545;50.054;8.306;2023-05-10T04:06:49;99307.69;;;11.55;100.00
56671;BME280;42545;50.054;8.306;2023-05-10T04:09:16;99309.47;;;11.54;100.00
56671;BME280;42545;50.054;8.306;2023-05-10T04:11:43;99312.09;;;11.54;100.00
56671;BME280;42545;50.054;8.306;2023-05-10T04:14:09;99309.47;;;11.53;100.00
56671;BME280;42545;50.054;8.306;2023-05-10T04:16:36;99304.19;;;11.53;100.00
56671;BME280;42545;50.054;8.306;2023-05-10T04:19:04;99313.88;;;11.56;100.00
56671;BME280;42545;50.054;8.306;2023-05-10T04:21:31;99311.25;;;11.56;100.00
56671;BME280;42545;50.054;8.306;2023-05-10T04:23:57;99312.97;;;11.55;100.00
56671;BME280;42545;50.054;8.306;2023-05-10T04:26:24;99323.56;;;11.57;100.00
56671;BME280;42545;50.054;8.306;2023-05-10T04:28:51;99321.78;;;11.60;100.00
56671;BME280;42545;50.054;8.306;2023-05-10T04:31:17;99320.03;;;11.62;100.00
56671;BME280;42545;50.054;8.306;2023-05-10T04:33:44;99322.69;;;11.65;100.00
56671;BME280;42545;50.054;8.306;2023-05-10T04:36:12;99325.34;;;11.68;100.00
56671;BME280;42545;50.054;8.306;2023-05-10T04:38:38;99321.81;;;11.71;100.00
56671;BME280;42545;50.054;8.306;2023-05-10T04:41:06;99328.84;;;11.73;100.00
56671;BME280;42545;50.054;8.306;2023-05-10T04:43:33;99328.84;;;11.73;100.00
56671;BME280;42545;50.054;8.306;2023-05-10T04:45:59;99334.13;;;11.77;100.00
56671;BME280;42545;50.054;8.306;2023-05-10T04:48:26;99346.50;;;11.79;100.00
56671;BME280;42545;50.054;8.306;2023-05-10T04:50:52;99339.41;;;11.78;100.00
56671;BME280;42545;50.054;8.306;2023-05-10T04:53:20;99350.88;;;11.76;100.00
56671;BME280;42545;50.054;8.306;2023-05-10T04:55:47;99342.03;;;11.73;100.00
56671;BME280;42545;50.054;8.306;2023-05-10T04:58:14;99355.25;;;11.73;100.00
56671;BME280;42545;50.054;8.306;2023-05-10T05:00:41;99345.59;;;11.74;100.00
56671;BME280;42545;50.054;8.306;2023-05-10T05:03:08;99342.06;;;11.75;100.00
56671;BME280;42545;50.054;8.306;2023-05-10T05:05:34;99332.38;;;11.79;100.00
56671;BME280;42545;50.054;8.306;2023-05-10T05:08:01;99336.78;;;11.78;100.00
56671;BME280;42545;50.054;8.306;2023-05-10T05:10:29;99321.81;;;11.76;100.00
56671;BME280;42545;50.054;8.306;2023-05-10T05:12:55;99323.56;;;11.73;100.00
56671;BME280;42545;50.054;8.306;2023-05-10T05:15:22;99330.59;;;11.74;100.00
56671;BME280;42545;50.054;8.306;2023-05-10T05:17:48;99326.19;;;11.73;100.00
56671;BME280;42545;50.054;8.306;2023-05-10T05:20:15;99330.59;;;11.70;100.00
56671;BME280;42545;50.054;8.306;2023-05-10T05:22:42;99332.38;;;11.71;100.00
56671;BME280;42545;50.054;8.306;2023-05-10T05:25:08;99335.91;;;11.68;100.00
56671;BME280;42545;50.054;8.306;2023-05-10T05:27:38;99330.63;;;11.67;100.00
56671;BME280;42545;50.054;8.306;2023-05-10T05:30:05;99341.19;;;11.65;100.00
56671;BME280;42545;50.054;8.306;2023-05-10T05:32:32;99347.34;;;11.67;100.00
56671;BME280;42545;50.054;8.306;2023-05-10T05:34:59;99353.50;;;11.71;100.00
56671;BME280;42545;50.054;8.306;2023-05-10T05:37:25;99346.47;;;11.74;100.00
56671;BME280;42545;50.054;8.306;2023-05-10T05:39:52;99352.63;;;11.77;100.00
56671;BME280;42545;50.054;8.306;2023-05-10T05:42:20;99356.16;;;11.80;100.00
56671;BME280;42545;50.054;8.306;2023-05-10T05:44:48;99358.81;;;11.85;100.00
56671;BME280;42545;50.054;8.306;2023-05-10T05:47:14;99357.91;;;11.87;100.00
56671;BME280;42545;50.054;8.306;2023-05-10T05:49:41;99353.56;;;11.92;100.00
56671;BME280;42545;50.054;8.306;2023-05-10T05:52:07;99353.56;;;11.94;100.00
56671;BME280;42545;50.054;8.306;2023-05-10T05:54:34;99361.47;;;12.03;100.00
56671;BME280;42545;50.054;8.306;2023-05-10T05:57:00;99364.09;;;12.09;100.00
56671;BME280;42545;50.054;8.306;2023-05-10T05:59:27;99373.78;;;12.14;100.00
56671;BME280;42545;50.054;8.306;2023-05-10T06:01:55;99364.13;;;12.11;100.00
56671;BME280;42545;50.054;8.306;2023-05-10T06:04:22;99372.91;;;12.10;100.00
56671;BME280;42545;50.054;8.306;2023-05-10T06:06:49;99379.09;;;12.07;100.00
56671;BME280;42545;50.054;8.306;2023-05-10T06:09:15;99379.97;;;12.09;100.00
56671;BME280;42545;50.054;8.306;2023-05-10T06:11:42;99380.88;;;12.07;100.00
56671;BME280;42545;50.054;8.306;2023-05-10T06:14:08;99388.81;;;12.08;100.00
56671;BME280;42545;50.054;8.306;2023-05-10T06:16:35;99386.16;;;12.08;100.00
56671;BME280;42545;50.054;8.306;2023-05-10T06:19:03;99391.44;;;12.10;100.00
56671;BME280;42545;50.054;8.306;2023-05-10T06:21:29;99385.28;;;12.11;100.00
56671;BME280;42545;50.054;8.306;2023-05-10T06:23:56;99394.97;;;12.17;100.00
56671;BME280;42545;50.054;8.306;2023-05-10T06:26:23;99387.03;;;12.18;100.00
56671;BME280;42545;50.054;8.306;2023-05-10T06:28:50;99388.78;;;12.21;100.00
56671;BME280;42545;50.054;8.306;2023-05-10T06:31:16;99389.66;;;12.23;100.00
56671;BME280;42545;50.054;8.306;2023-05-10T06:33:43;99397.59;;;12.26;100.00
56671;BME280;42545;50.054;8.306;2023-05-10T06:36:11;99399.38;;;12.28;100.00
56671;BME280;42545;50.054;8.306;2023-05-10T06:38:38;99407.28;;;12.33;100.00
56671;BME280;42545;50.054;8.306;2023-05-10T06:41:05;99411.69;;;12.36;100.00
56671;BME280;42545;50.054;8.306;2023-05-10T06:43:31;99407.28;;;12.31;100.00
56671;BME280;42545;50.054;8.306;2023-05-10T06:45:58;99410.78;;;12.43;100.00
56671;BME280;42545;50.054;8.306;2023-05-10T06:48:24;99416.09;;;12.50;100.00
56671;BME280;42545;50.054;8.306;2023-05-10T06:50:51;99418.72;;;12.55;100.00
56671;BME280;42545;50.054;8.306;2023-05-10T06:53:19;99420.50;;;12.58;100.00
56671;BME280;42545;50.054;8.306;2023-05-10T06:55:45;99425.75;;;12.59;100.00
56671;BME280;42545;50.054;8.306;2023-05-10T06:58:12;99427.53;;;12.59;100.00
56671;BME280;42545;50.054;8.306;2023-05-10T07:00:38;99425.78;;;12.58;100.00
56671;BME280;42545;50.054;8.306;2023-05-10T07:03:07;99428.41;;;12.59;100.00
56671;BME280;42545;50.054;8.306;2023-05-10T07:05:34;99434.59;;;12.58;100.00
56671;BME280;42545;50.054;8.306;2023-05-10T07:08:01;99429.31;;;12.61;100.00
56671;BME280;42545;50.054;8.306;2023-05-10T07:10:29;99428.41;;;12.64;100.00
56671;BME280;42545;50.054;8.306;2023-05-10T07:12:56;99425.75;;;12.72;100.00
56671;BME280;42545;50.054;8.306;2023-05-10T07:15:22;99431.03;;;12.78;100.00
56671;BME280;42545;50.054;8.306;2023-05-10T07:17:49;99437.19;;;12.83;100.00
56671;BME280;42545;50.054;8.306;2023-05-10T07:20:17;99436.28;;;12.90;100.00
56671;BME280;42545;50.054;8.306;2023-05-10T07:22:43;99439.78;;;12.95;100.00
56671;BME280;42545;50.054;8.306;2023-05-10T07:25:10;99440.66;;;12.96;100.00
56671;BME280;42545;50.054;8.306;2023-05-10T07:27:38;99442.44;;;12.97;100.00
56671;BME280;42545;50.054;8.306;2023-05-10T07:30:06;99446.84;;;12.99;100.00
56671;BME280;42545;50.054;8.306;2023-05-10T07:32:33;99445.09;;;12.97;100.00
56671;BME280;42545;50.054;8.306;2023-05-10T07:34:59;99446.84;;;13.05;100.00
56671;BME280;42545;50.054;8.306;2023-05-10T07:37:26;99452.13;;;13.07;100.00
56671;BME280;42545;50.054;8.306;2023-05-10T07:39:52;99448.56;;;13.11;100.00
56671;BME280;42545;50.054;8.306;2023-05-10T07:42:19;99454.75;;;13.13;100.00
56671;BME280;42545;50.054;8.306;2023-05-10T07:44:47;99450.31;;;13.15;100.00
56671;BME280;42545;50.054;8.306;2023-05-10T07:47:13;99450.31;;;13.15;100.00
56671;BME280;42545;50.054;8.306;2023-05-10T07:49:40;99452.97;;;13.17;100.00
56671;BME280;42545;50.054;8.306;2023-05-10T07:52:07;99452.06;;;13.18;100.00
56671;BME280;42545;50.054;8.306;2023-05-10T07:54:33;99450.28;;;13.26;100.00
56671;BME280;42545;50.054;8.306;2023-05-10T07:57:00;99455.56;;;13.32;100.00
56671;BME280;42545;50.054;8.306;2023-05-10T07:59:27;99452.03;;;13.36;100.00
56671;BME280;42545;50.054;8.306;2023-05-10T08:01:55;99456.44;;;13.34;100.00
56671;BME280;42545;50.054;8.306;2023-05-10T08:04:21;99454.66;;;13.39;100.00
56671;BME280;42545;50.054;8.306;2023-05-10T08:06:48;99453.78;;;13.37;100.00
56671;BME280;42545;50.054;8.306;2023-05-10T08:09:15;99449.41;;;13.36;100.00
56671;BME280;42545;50.054;8.306;2023-05-10T08:11:43;99461.75;;;13.36;100.00
56671;BME280;42545;50.054;8.306;2023-05-10T08:14:09;99450.31;;;13.31;100.00
56671;BME280;42545;50.054;8.306;2023-05-10T08:16:36;99455.56;;;13.26;100.00
56671;BME280;42545;50.054;8.306;2023-05-10T08:19:04;99455.56;;;13.26;100.00
56671;BME280;42545;50.054;8.306;2023-05-10T08:21:31;99458.22;;;13.24;100.00
56671;BME280;42545;50.054;8.306;2023-05-10T08:23:57;99452.94;;;13.27;100.00
56671;BME280;42545;50.054;8.306;2023-05-10T08:26:24;99454.69;;;13.32;100.00
56671;BME280;42545;50.054;8.306;2023-05-10T08:28:51;99462.66;;;13.35;100.00
56671;BME280;42545;50.054;8.306;2023-05-10T08:31:18;99467.03;;;13.39;100.00
56671;BME280;42545;50.054;8.306;2023-05-10T08:33:44;99459.09;;;13.40;100.00
56671;BME280;42545;50.054;8.306;2023-05-10T08:36:12;99460.78;;;13.51;100.00
56671;BME280;42545;50.054;8.306;2023-05-10T08:38:44;99466.03;;;13.63;100.00
56671;BME280;42545;50.054;8.306;2023-05-10T08:41:11;99465.97;;;13.71;100.00
56671;BME280;42545;50.054;8.306;2023-05-10T08:43:38;99475.66;;;13.79;100.00
56671;BME280;42545;50.054;8.306;2023-05-10T08:46:07;99472.06;;;13.88;100.00
56671;BME280;42545;50.054;8.306;2023-05-10T08:48:35;99467.56;;;13.99;100.00
56671;BME280;42545;50.054;8.306;2023-05-10T08:51:03;99469.28;;;14.11;100.00
56671;BME280;42545;50.054;8.306;2023-05-10T08:53:33;99462.13;;;14.16;100.00
56671;BME280;42545;50.054;8.306;2023-05-10T08:56:03;99472.72;;;14.21;100.00
56671;BME280;42545;50.054;8.306;2023-05-10T08:58:30;99478.06;;;14.16;100.00
56671;BME280;42545;50.054;8.306;2023-05-10T09:00:57;99489.63;;;14.08;100.00
56671;BME280;42545;50.054;8.306;2023-05-10T09:03:24;99491.44;;;14.02;100.00
56671;BME280;42545;50.054;8.306;2023-05-10T09:05:51;99498.53;;;13.96;100.00
56671;BME280;42545;50.054;8.306;2023-05-10T09:08:23;99495.94;;;13.91;100.00
56671;BME280;42545;50.054;8.306;2023-05-10T09:10:52;99495.06;;;13.83;100.00
56671;BME280;42545;50.054;8.306;2023-05-10T09:13:19;99497.78;;;13.74;100.00
56671;BME280;42545;50.054;8.306;2023-05-10T09:15:48;99494.31;;;13.62;100.00
56671;BME280;42545;50.054;8.306;2023-05-10T09:18:15;99495.19;;;13.61;100.00
56671;BME280;42545;50.054;8.306;2023-05-10T09:20:41;99498.69;;;13.67;100.00
56671;BME280;42545;50.054;8.306;2023-05-10T09:23:08;99499.56;;;13.72;100.00
56671;BME280;42545;50.054;8.306;2023-05-10T09:25:35;99493.34;;;13.82;100.00
56671;BME280;42545;50.054;8.306;2023-05-10T09:28:07;99500.31;;;13.91;100.00
56671;BME280;42545;50.054;8.306;2023-05-10T09:30:35;99494.16;;;13.92;100.00
56671;BME280;42545;50.054;8.306;2023-05-10T09:33:01;99497.66;;;13.95;100.00
56671;BME280;42545;50.054;8.306;2023-05-10T09:35:30;99501.19;;;13.94;100.00
56671;BME280;42545;50.054;8.306;2023-05-10T09:37:58;99500.31;;;13.94;100.00
56671;BME280;42545;50.054;8.306;2023-05-10T09:40:26;99512.72;;;13.93;100.00
56671;BME280;42545;50.054;8.306;2023-05-10T09:42:55;99523.31;;;13.92;100.00
56671;BME280;42545;50.054;8.306;2023-05-10T09:45:25;99526.13;;;13.65;100.00
56671;BME280;42545;50.054;8.306;2023-05-10T09:47:51;99511.19;;;13.41;100.00
56671;BME280;42545;50.054;8.306;2023-05-10T09:50:19;99513.00;;;13.21;100.00
56671;BME280;42545;50.054;8.306;2023-05-10T09:52:47;99522.75;;;12.97;100.00
56671;BME280;42545;50.054;8.306;2023-05-10T09:55:14;99513.94;;;12.83;100.00
56671;BME280;42545;50.054;8.306;2023-05-10T09:57:40;99513.97;;;12.74;100.00
56671;BME280;42545;50.054;8.306;2023-05-10T10:00:08;99518.38;;;12.68;100.00
56671;BME280;42545;50.054;8.306;2023-05-10T10:02:38;99527.22;;;12.71;100.00
56671;BME280;42545;50.054;8.306;2023-05-10T10:05:07;99520.13;;;12.76;100.00
56671;BME280;42545;50.054;8.306;2023-05-10T10:07:34;99528.94;;;12.88;100.00
56671;BME280;42545;50.054;8.306;2023-05-10T10:10:01;99528.97;;;12.98;100.00
56671;BME280;42545;50.054;8.306;2023-05-10T10:12:30;99523.66;;;13.07;100.00
56671;BME280;42545;50.054;8.306;2023-05-10T10:14:57;99528.88;;;13.18;100.00
56671;BME280;42545;50.054;8.306;2023-05-10T10:17:27;99532.41;;;13.21;100.00
56671;BME280;42545;50.054;8.306;2023-05-10T10:19:57;99522.69;;;13.28;100.00
56671;BME280;42545;50.054;8.306;2023-05-10T10:22:23;99520.03;;;13.42;100.00
56671;BME280;42545;50.054;8.306;2023-05-10T10:24:50;99525.25;;;13.59;100.00
56671;BME280;42545;50.054;8.306;2023-05-10T10:27:23;99512.81;;;13.76;100.00
56671;BME280;42545;50.054;8.306;2023-05-10T10:30:00;99519.84;;;13.80;100.00
56671;BME280;42545;50.054;8.306;2023-05-10T10:32:35;99520.69;;;13.90;100.00
56671;BME280;42545;50.054;8.306;2023-05-10T10:35:06;99518.88;;;13.95;100.00
56671;BME280;42545;50.054;8.306;2023-05-10T10:37:44;99516.16;;;14.09;100.00
56671;BME280;42545;50.054;8.306;2023-05-10T10:40:27;99530.28;;;14.13;100.00
56671;BME280;42545;50.054;8.306;2023-05-10T10:42:55;99529.38;;;14.12;100.00
56671;BME280;42545;50.054;8.306;2023-05-10T10:45:22;99529.38;;;14.15;100.00
56671;BME280;42545;50.054;8.306;2023-05-10T10:47:56;99524.06;;;14.18;100.00
56671;BME280;42545;50.054;8.306;2023-05-10T10:50:45;99528.47;;;14.18;100.00
56671;BME280;42545;50.054;8.306;2023-05-10T10:53:12;99528.63;;;13.96;100.00
56671;BME280;42545;50.054;8.306;2023-05-10T10:55:46;99525.97;;;13.87;100.00
56671;BME280;42545;50.054;8.306;2023-05-10T10:58:29;99519.81;;;13.91;100.00
56671;BME280;42545;50.054;8.306;2023-05-10T11:01:10;99529.44;;;14.03;100.00
56671;BME280;42545;50.054;8.306;2023-05-10T11:03:36;99516.16;;;14.04;100.00
56671;BME280;42545;50.054;8.306;2023-05-10T11:06:05;99525.84;;;14.10;100.00
56671;BME280;42545;50.054;8.306;2023-05-10T11:08:33;99522.34;;;14.05;100.00
56671;BME280;42545;50.054;8.306;2023-05-10T11:11:05;99532.19;;;13.86;100.00
56671;BME280;42545;50.054;8.306;2023-05-10T11:13:39;99532.22;;;13.81;100.00
56671;BME280;42545;50.054;8.306;2023-05-10T11:16:11;99529.59;;;13.78;100.00
56671;BME280;42545;50.054;8.306;2023-05-10T11:18:38;99530.50;;;13.70;100.00
56671;BME280;42545;50.054;8.306;2023-05-10T11:21:08;99530.50;;;13.71;100.00
56671;BME280;42545;50.054;8.306;2023-05-10T11:23:48;99537.59;;;13.69;100.00
56671;BME280;42545;50.054;8.306;2023-05-10T11:26:16;99526.13;;;13.61;100.00
56671;BME280;42545;50.054;8.306;2023-05-10T11:28:43;99521.75;;;13.54;100.00
56671;BME280;42545;50.054;8.306;2023-05-10T11:31:13;99532.34;;;13.52;100.00
56671;BME280;42545;50.054;8.306;2023-05-10T11:33:43;99535.00;;;13.52;100.00
56671;BME280;42545;50.054;8.306;2023-05-10T11:36:16;99534.13;;;13.52;100.00
56671;BME280;42545;50.054;8.306;2023-05-10T11:38:44;99521.72;;;13.58;100.00
56671;BME280;42545;50.054;8.306;2023-05-10T11:41:11;99532.28;;;13.64;100.00
56671;BME280;42545;50.054;8.306;2023-05-10T11:43:39;99534.91;;;13.77;100.00
56671;BME280;42545;50.054;8.306;2023-05-10T11:46:07;99535.72;;;13.83;100.00
56671;BME280;42545;50.054;8.306;2023-05-10T11:48:34;99538.44;;;13.74;100.00
56671;BME280;42545;50.054;8.306;2023-05-10T11:51:01;99534.91;;;13.72;100.00
56671;BME280;42545;50.054;8.306;2023-05-10T11:53:32;99541.16;;;13.62;100.00
56671;BME280;42545;50.054;8.306;2023-05-10T11:56:03;99538.50;;;13.59;100.00
56671;BME280;42545;50.054;8.306;2023-05-10T11:58:31;99534.94;;;13.64;100.00
56671;BME280;42545;50.054;8.306;2023-05-10T12:01:00;99538.44;;;13.74;100.00
56671;BME280;42545;50.054;8.306;2023-05-10T12:03:27;99541.94;;;13.79;100.00
56671;BME280;42545;50.054;8.306;2023-05-10T12:05:54;99551.72;;;13.67;100.00
56671;BME280;42545;50.054;8.306;2023-05-10T12:08:23;99542.06;;;13.52;100.00
56671;BME280;42545;50.054;8.306;2023-05-10T12:10:51;99547.34;;;13.64;100.00
56671;BME280;42545;50.054;8.306;2023-05-10T12:13:19;99556.06;;;13.81;100.00
56671;BME280;42545;50.054;8.306;2023-05-10T12:15:46;99544.59;;;13.81;100.00
56671;BME280;42545;50.054;8.306;2023-05-10T12:18:14;99554.28;;;13.88;100.00
56671;BME280;42545;50.054;8.306;2023-05-10T12:20:41;99551.63;;;13.85;100.00
56671;BME280;42545;50.054;8.306;2023-05-10T12:23:08;99548.16;;;13.80;100.00
56671;BME280;42545;50.054;8.306;2023-05-10T12:25:36;99556.97;;;13.80;100.00
56671;BME280;42545;50.054;8.306;2023-05-10T12:28:06;99556.06;;;13.81;100.00
56671;BME280;42545;50.054;8.306;2023-05-10T12:30:33;99556.06;;;13.84;100.00
56671;BME280;42545;50.054;8.306;2023-05-10T12:33:03;99559.59;;;13.85;100.00
56671;BME280;42545;50.054;8.306;2023-05-10T12:35:38;99559.63;;;13.82;100.00
56671;BME280;42545;50.054;8.306;2023-05-10T12:38:26;99556.06;;;13.86;100.00
56671;BME280;42545;50.054;8.306;2023-05-10T12:40:55;99562.25;;;13.88;100.00
56671;BME280;42545;50.054;8.306;2023-05-10T12:43:23;99562.25;;;13.83;100.00
56671;BME280;42545;50.054;8.306;2023-05-10T12:45:50;99572.06;;;13.69;100.00
56671;BME280;42545;50.054;8.306;2023-05-10T12:48:20;99572.97;;;13.62;100.00
56671;BME280;42545;50.054;8.306;2023-05-10T12:50:46;99582.69;;;13.54;100.00
56671;BME280;42545;50.054;8.306;2023-05-10T12:53:14;99583.56;;;13.56;100.00
56671;BME280;42545;50.054;8.306;2023-05-10T12:55:41;99580.91;;;13.62;100.00
56671;BME280;42545;50.054;8.306;2023-05-10T12:58:08;99579.97;;;13.75;100.00